Time;durP1;ratioP1;P1;durP2;ratioP2;P2;SDS_P1;SDS_P2;PMS_P1;PMS_P2;Temp;Humidity;BMP_temperature;BMP_pressure;BME280_temperature;BME280_humidity;BME280_pressure;Samples;Min_cycle;Max_cycle;Signal;HPM_P1;HPM_P2
2021/04/24 00:03:08;;;;;;;23.25;9.35;;;;;;;-146.18;100.00;67994.34;9993039;29;20044;-67
2021/04/24 00:08:07;;;;;;;19.85;10.50;;;;;;;-146.18;100.00;67994.34;9991341;29;20056;-66
2021/04/24 00:13:05;;;;;;;19.98;10.23;;;;;;;-146.18;100.00;67994.34;9988793;29;20166;-65
2021/04/24 00:18:02;;;;;;;22.60;9.55;;;;;;;-146.18;100.00;67994.34;9984673;29;20052;-67
2021/04/24 00:22:58;;;;;;;23.55;10.27;;;;;;;-146.18;100.00;67994.34;9990365;29;20043;-66
2021/04/24 00:27:54;;;;;;;17.08;9.35;;;;;;;-146.18;100.00;67994.34;9988042;29;20399;-66
2021/04/24 00:32:51;;;;;;;23.45;10.57;;;;;;;-146.18;100.00;67994.34;9985303;29;20052;-67
2021/04/24 00:37:49;;;;;;;20.38;10.45;;;;;;;-146.18;100.00;67994.34;9989656;29;20414;-66
2021/04/24 00:42:47;;;;;;;24.17;10.80;;;;;;;-146.18;100.00;67994.34;9991708;29;20043;-65
2021/04/24 00:47:44;;;;;;;23.60;9.85;;;;;;;-146.18;100.00;67994.34;9987442;29;20060;-66
2021/04/24 00:52:41;;;;;;;22.23;9.57;;;;;;;-146.18;100.00;67994.34;9986852;29;20052;-66
2021/04/24 00:57:37;;;;;;;17.85;8.50;;;;;;;-146.18;100.00;67994.34;9991651;29;20533;-67
2021/04/24 01:02:33;;;;;;;21.13;10.32;;;;;;;-146.18;100.00;67994.34;9984703;29;20044;-65
2021/04/24 01:07:29;;;;;;;20.70;9.10;;;;;;;-146.18;100.00;67994.34;9984956;29;20052;-66
2021/04/24 01:12:25;;;;;;;22.63;8.95;;;;;;;-146.18;100.00;67994.34;9988553;29;20127;-67
2021/04/24 01:17:21;;;;;;;21.92;8.98;;;;;;;-146.18;100.00;67994.34;9978286;29;20044;-65
2021/04/24 01:22:17;;;;;;;26.27;9.40;;;;;;;-146.18;100.00;67994.34;9984920;29;20475;-66
2021/04/24 01:27:13;;;;;;;23.67;8.90;;;;;;;-146.18;100.00;67994.34;9982032;29;20128;-66
2021/04/24 01:32:11;;;;;;;17.35;9.00;;;;;;;-146.18;100.00;67994.34;9988247;29;20055;-67
2021/04/24 01:37:07;;;;;;;18.60;8.73;;;;;;;-146.18;100.00;67994.34;9990728;29;20479;-68
2021/04/24 01:42:03;;;;;;;21.67;9.35;;;;;;;-146.18;100.00;67994.34;9984087;29;20052;-67
2021/04/24 01:46:59;;;;;;;20.73;8.70;;;;;;;-146.18;100.00;67994.34;9989186;29;20052;-67
2021/04/24 01:51:56;;;;;;;21.70;8.52;;;;;;;-146.18;100.00;67994.34;9986293;29;20084;-65
2021/04/24 01:56:54;;;;;;;17.35;8.05;;;;;;;-146.18;100.00;67994.34;9985461;29;20052;-67
2021/04/24 02:01:52;;;;;;;22.67;8.75;;;;;;;-146.18;100.00;67994.34;9983232;29;20067;-67
2021/04/24 02:06:49;;;;;;;21.05;9.35;;;;;;;-146.18;100.00;67994.34;9978600;29;20103;-68
2021/04/24 02:12:13;;;;;;;18.70;10.43;;;;;;;-146.18;100.00;67994.34;9972700;29;20079;-67
2021/04/24 02:17:12;;;;;;;21.08;8.88;;;;;;;-146.18;100.00;67994.34;9985375;29;20071;-67
2021/04/24 02:22:09;;;;;;;18.13;7.15;;;;;;;-146.18;100.00;67994.34;9984557;29;20093;-67
2021/04/24 02:27:07;;;;;;;18.33;7.68;;;;;;;-146.18;100.00;67994.34;9985910;29;20079;-67
2021/04/24 02:32:04;;;;;;;20.52;7.90;;;;;;;-146.18;100.00;67994.34;9985437;29;20099;-66
2021/04/24 02:37:00;;;;;;;16.08;7.45;;;;;;;-146.18;100.00;67994.34;9982833;29;20122;-67
2021/04/24 02:41:58;;;;;;;19.60;8.38;;;;;;;-146.18;100.00;67994.34;9992217;29;20044;-65
2021/04/24 02:46:54;;;;;;;16.27;7.80;;;;;;;-146.18;100.00;67994.34;9995652;29;20111;-66
2021/04/24 02:51:52;;;;;;;20.55;7.70;;;;;;;-146.18;100.00;67994.34;9997148;29;20059;-68
2021/04/24 02:56:49;;;;;;;20.20;8.45;;;;;;;-146.18;100.00;67994.34;9995368;29;20048;-66
2021/04/24 03:01:45;;;;;;;21.25;7.82;;;;;;;-146.18;100.00;67994.34;9988247;29;20071;-66
2021/04/24 03:06:42;;;;;;;24.45;7.60;;;;;;;-146.18;100.00;67994.34;9992457;29;20051;-67
2021/04/24 03:11:39;;;;;;;18.27;7.82;;;;;;;-146.18;100.00;67994.34;9993521;29;20048;-66
2021/04/24 03:16:36;;;;;;;16.83;7.22;;;;;;;-146.18;100.00;67994.34;9993523;29;20056;-66
2021/04/24 03:21:32;;;;;;;19.88;7.60;;;;;;;-146.18;100.00;67994.34;9991635;29;20407;-66
2021/04/24 03:26:28;;;;;;;18.52;6.88;;;;;;;-146.18;100.00;67994.34;9993201;29;20044;-68
2021/04/24 03:31:24;;;;;;;20.98;7.28;;;;;;;-146.18;100.00;67994.34;9987367;29;20047;-66
2021/04/24 03:36:21;;;;;;;15.18;6.45;;;;;;;-146.18;100.00;67994.34;9988781;29;20068;-66
2021/04/24 03:41:17;;;;;;;19.73;7.55;;;;;;;-146.18;100.00;67994.34;9996282;29;20834;-66
2021/04/24 03:46:13;;;;;;;12.75;7.03;;;;;;;-146.18;100.00;67994.34;9993682;29;20048;-67
2021/04/24 03:51:09;;;;;;;16.20;6.82;;;;;;;-146.18;100.00;67994.34;9986035;29;20096;-67
2021/04/24 03:56:05;;;;;;;17.52;7.32;;;;;;;-146.18;100.00;67994.34;9991713;29;20056;-66
2021/04/24 04:01:01;;;;;;;20.45;7.45;;;;;;;-146.18;100.00;67994.34;9987788;29;20479;-67
2021/04/24 04:05:57;;;;;;;19.77;7.18;;;;;;;-146.18;100.00;67994.34;9992887;29;20142;-67
2021/04/24 04:10:53;;;;;;;14.40;6.53;;;;;;;-146.18;100.00;67994.34;9974902;29;20090;-66
2021/04/24 04:15:49;;;;;;;17.20;6.60;;;;;;;-146.18;100.00;67994.34;9987200;29;20079;-67
2021/04/24 04:20:47;;;;;;;19.20;7.03;;;;;;;-146.18;100.00;67994.34;9992616;29;20044;-66
2021/04/24 04:25:51;;;;;;;19.02;7.13;;;;;;;-146.18;100.00;67994.34;9986771;29;20661;-67
2021/04/24 04:30:48;;;;;;;21.85;6.80;;;;;;;-146.18;100.00;67994.34;9991280;29;20048;-66
2021/04/24 04:35:45;;;;;;;12.02;5.50;;;;;;;-146.18;100.00;67994.34;9990552;29;20129;-67
2021/04/24 04:40:42;;;;;;;15.13;6.38;;;;;;;-146.18;100.00;67994.34;9991523;29;20470;-67
2021/04/24 04:45:38;;;;;;;23.05;7.28;;;;;;;-146.18;100.00;67994.34;9986743;29;20399;-67
2021/04/24 04:50:36;;;;;;;14.90;5.70;;;;;;;-146.18;100.00;67994.34;9987950;29;20987;-67
2021/04/24 04:55:34;;;;;;;19.90;6.88;;;;;;;-146.18;100.00;67994.34;9986636;29;20059;-66
2021/04/24 05:00:30;;;;;;;15.70;6.32;;;;;;;-146.18;100.00;67994.34;9992556;29;20099;-66
2021/04/24 05:05:26;;;;;;;14.48;6.10;;;;;;;-146.18;100.00;67994.34;9992009;29;20055;-65
2021/04/24 05:10:25;;;;;;;18.48;5.93;;;;;;;-146.18;100.00;67994.34;9982724;29;20059;-65
2021/04/24 05:15:21;;;;;;;19.40;6.22;;;;;;;-146.18;100.00;67994.34;9987741;29;20056;-66
2021/04/24 05:20:18;;;;;;;18.17;6.35;;;;;;;-146.18;100.00;67994.34;9989858;29;20063;-66
2021/04/24 05:25:16;;;;;;;17.27;4.80;;;;;;;-146.18;100.00;67994.34;9987425;29;20104;-66
2021/04/24 05:30:17;;;;;;;15.30;4.35;;;;;;;-146.18;100.00;67994.34;9988063;29;20056;-66
2021/04/24 05:35:14;;;;;;;14.50;5.10;;;;;;;-146.18;100.00;67994.34;9990055;29;20115;-66
2021/04/24 05:40:11;;;;;;;14.55;4.60;;;;;;;-146.18;100.00;67994.34;9985858;29;20702;-66
2021/04/24 05:45:12;;;;;;;18.88;5.28;;;;;;;-146.18;100.00;67994.34;9983543;29;20064;-66
2021/04/24 05:50:09;;;;;;;14.35;4.47;;;;;;;-146.18;100.00;67994.34;9984344;29;20057;-66
2021/04/24 05:55:09;;;;;;;12.75;4.38;;;;;;;-146.18;100.00;67994.34;9987219;29;20143;-65
2021/04/24 06:00:09;;;;;;;19.88;5.35;;;;;;;-146.18;100.00;67994.34;9986298;29;20080;-65
2021/04/24 06:05:07;;;;;;;19.85;4.88;;;;;;;-146.18;100.00;67994.34;9980823;29;20047;-66
2021/04/24 06:10:06;;;;;;;23.55;5.93;;;;;;;-146.18;100.00;67994.34;9988265;29;20055;-68
2021/04/24 06:15:05;;;;;;;15.43;4.47;;;;;;;-146.18;100.00;67994.34;9996533;29;20064;-65
2021/04/24 06:20:01;;;;;;;16.85;4.50;;;;;;;-146.18;100.00;67994.34;9999241;29;20554;-65
2021/04/24 06:24:57;;;;;;;15.52;4.65;;;;;;;-146.18;100.00;67994.34;9994337;29;20052;-66
2021/04/24 06:29:54;;;;;;;17.65;5.38;;;;;;;-146.18;100.00;67994.34;9992984;29;20048;-66
2021/04/24 06:34:51;;;;;;;18.27;4.60;;;;;;;-146.18;100.00;67994.34;9990170;29;20048;-65
2021/04/24 06:39:47;;;;;;;14.57;4.53;;;;;;;-146.18;100.00;67994.34;9990997;29;20111;-66
2021/04/24 06:44:44;;;;;;;17.17;4.18;;;;;;;-146.18;100.00;67994.34;9994079;29;21222;-65
2021/04/24 06:49:40;;;;;;;26.85;4.95;;;;;;;-146.18;100.00;67994.34;9988739;29;20098;-67
2021/04/24 06:54:36;;;;;;;25.20;4.63;;;;;;;-146.18;100.00;67994.34;9995246;29;20044;-66
2021/04/24 06:59:34;;;;;;;15.77;3.33;;;;;;;-146.18;100.00;67994.34;9995326;29;20140;-66
2021/04/24 07:04:30;;;;;;;12.52;3.83;;;;;;;-146.18;100.00;67994.34;9995985;29;20984;-66
2021/04/24 07:09:26;;;;;;;16.88;3.95;;;;;;;-146.18;100.00;67994.34;9989958;29;20048;-66
2021/04/24 07:14:23;;;;;;;18.27;4.80;;;;;;;-146.18;100.00;67994.34;9993270;29;20055;-67
2021/04/24 07:19:19;;;;;;;18.20;4.45;;;;;;;-146.18;100.00;67994.34;9990619;29;20111;-63
2021/04/24 07:24:15;;;;;;;28.90;4.13;;;;;;;-146.18;100.00;67994.34;9990479;29;20055;-66
2021/04/24 07:29:11;;;;;;;14.13;3.53;;;;;;;-146.18;100.00;67994.34;9993811;29;20404;-67
2021/04/24 07:34:10;;;;;;;21.77;3.95;;;;;;;-146.18;100.00;67994.34;9990315;29;20044;-67
2021/04/24 07:39:06;;;;;;;19.80;3.65;;;;;;;-146.18;100.00;67994.34;9985831;29;20538;-66
2021/04/24 07:44:03;;;;;;;18.77;4.00;;;;;;;-146.18;100.00;67994.34;9992070;29;20479;-66
2021/04/24 07:48:58;;;;;;;11.90;4.07;;;;;;;-146.18;100.00;67994.34;9994148;29;20088;-66
2021/04/24 07:53:54;;;;;;;19.08;3.78;;;;;;;-146.18;100.00;67994.34;9991766;29;20040;-66
2021/04/24 07:58:50;;;;;;;17.15;3.60;;;;;;;-146.18;100.00;67994.34;9986184;29;20048;-65
2021/04/24 08:03:46;;;;;;;14.50;3.40;;;;;;;-146.18;100.00;67994.34;9991562;29;20037;-65
2021/04/24 08:08:43;;;;;;;13.43;3.03;;;;;;;-146.18;100.00;67994.34;9988546;29;20095;-64
2021/04/24 08:13:39;;;;;;;14.23;3.55;;;;;;;-146.18;100.00;67994.34;9993186;29;20052;-65
2021/04/24 08:18:35;;;;;;;10.98;3.30;;;;;;;-146.18;100.00;67994.34;9986584;29;20063;-66
2021/04/24 08:23:31;;;;;;;16.13;3.47;;;;;;;-146.18;100.00;67994.34;9991214;29;20131;-66
2021/04/24 08:28:26;;;;;;;14.95;3.30;;;;;;;-146.18;100.00;67994.34;9991641;29;20066;-66
2021/04/24 08:33:23;;;;;;;15.32;3.17;;;;;;;-146.18;100.00;67994.34;9992836;29;20048;-66
2021/04/24 08:38:19;;;;;;;17.63;7.30;;;;;;;-146.18;100.00;67994.34;9992712;29;20064;-66
2021/04/24 08:43:15;;;;;;;11.27;3.35;;;;;;;-146.18;100.00;67994.34;9993565;29;20545;-67
2021/04/24 08:48:11;;;;;;;16.23;2.88;;;;;;;-146.18;100.00;67994.34;9988110;29;20051;-67
2021/04/24 08:53:08;;;;;;;12.98;3.30;;;;;;;-146.18;100.00;67994.34;9992883;29;20507;-66
2021/04/24 08:58:05;;;;;;;11.02;2.85;;;;;;;-146.18;100.00;67994.34;9991332;29;20048;-65
2021/04/24 09:03:01;;;;;;;11.77;2.90;;;;;;;-146.18;100.00;67994.34;9987405;29;20098;-65
2021/04/24 09:07:59;;;;;;;17.67;2.92;;;;;;;-146.18;100.00;67994.34;9973874;29;20119;-67
2021/04/24 09:12:55;;;;;;;10.20;2.97;;;;;;;-146.18;100.00;67994.34;9969812;29;20083;-66
2021/04/24 09:18:08;;;;;;;12.65;2.78;;;;;;;-146.18;100.00;67994.34;9988011;29;20052;-66
2021/04/24 09:23:07;;;;;;;15.20;2.75;;;;;;;-146.18;100.00;67994.34;9991756;29;20080;-68
2021/04/24 09:28:05;;;;;;;9.75;3.15;;;;;;;-146.18;100.00;67994.34;9983076;29;20048;-68
2021/04/24 09:33:04;;;;;;;12.93;3.47;;;;;;;-146.18;100.00;67994.34;9987633;29;20103;-67
2021/04/24 09:38:02;;;;;;;6.82;2.35;;;;;;;-146.18;100.00;67994.34;9989941;29;20072;-67
2021/04/24 09:43:04;;;;;;;7.22;2.20;;;;;;;-146.18;100.00;67994.34;9992305;29;20111;-67
2021/04/24 09:48:01;;;;;;;7.28;2.40;;;;;;;-146.18;100.00;67994.34;9984903;29;20052;-67
2021/04/24 09:53:19;;;;;;;7.72;2.13;;;;;;;-146.18;100.00;67994.34;9990102;29;20380;-68
2021/04/24 09:58:35;;;;;;;8.15;2.38;;;;;;;-146.18;100.00;67994.34;9982572;29;20395;-66
2021/04/24 10:03:39;;;;;;;6.43;1.42;;;;;;;-146.18;100.00;67994.34;9983449;29;20040;-67
2021/04/24 10:08:35;;;;;;;;;;;;;;;-146.18;100.00;67994.34;9991148;29;20084;-67
2021/04/24 10:13:38;;;;;;;5.00;1.27;;;;;;;-146.18;100.00;67994.34;9989056;29;20033;-67
2021/04/24 10:18:34;;;;;;;7.75;1.70;;;;;;;-146.18;100.00;67994.34;9990640;29;20048;-65
2021/04/24 10:23:31;;;;;;;7.53;1.98;;;;;;;-146.18;100.00;67994.34;9986422;29;20048;-68
2021/04/24 10:28:29;;;;;;;6.88;1.90;;;;;;;-146.18;100.00;67994.34;9988639;29;20088;-65
2021/04/24 10:33:26;;;;;;;7.22;2.00;;;;;;;-146.18;100.00;67994.34;9985380;29;20044;-66
2021/04/24 10:38:22;;;;;;;13.85;2.75;;;;;;;-146.18;100.00;67994.34;9983017;29;20455;-63
2021/04/24 10:43:21;;;;;;;9.45;2.67;;;;;;;-146.18;100.00;67994.34;9988022;29;20048;-67
2021/04/24 10:48:25;;;;;;;7.15;2.05;;;;;;;-146.18;100.00;67994.34;9983387;29;20079;-66
2021/04/24 10:53:26;;;;;;;5.82;2.15;;;;;;;-146.18;100.00;67994.34;9986439;29;20103;-66
2021/04/24 10:58:24;;;;;;;8.35;2.20;;;;;;;-146.18;100.00;67994.34;9988193;29;20052;-67
2021/04/24 11:03:41;;;;;;;6.25;2.28;;;;;;;-146.18;100.00;67994.34;9992456;29;20048;-67
2021/04/24 11:08:38;;;;;;;6.80;2.00;;;;;;;-146.18;100.00;67994.34;9971072;29;20044;-66
2021/04/24 11:13:40;;;;;;;6.10;2.10;;;;;;;-146.18;100.00;67994.34;9983194;29;20063;-66
2021/04/24 11:18:38;;;;;;;7.93;2.10;;;;;;;-146.18;100.00;67994.34;9993874;29;20115;-66
2021/04/24 11:23:45;;;;;;;4.32;1.50;;;;;;;-146.18;100.00;67994.34;9988201;29;20052;-65
2021/04/24 11:29:17;;;;;;;7.40;1.73;;;;;;;-146.18;100.00;67994.34;9989198;29;20464;-67
2021/04/24 11:34:25;;;;;;;4.05;1.48;;;;;;;-146.18;100.00;67994.34;9993338;29;20068;-66
2021/04/24 11:39:21;;;;;;;7.38;2.05;;;;;;;-146.18;100.00;67994.34;9988891;29;20498;-67
2021/04/24 11:44:17;;;;;;;7.10;2.15;;;;;;;-146.18;100.00;67994.34;9989936;29;20041;-67
2021/04/24 11:49:20;;;;;;;6.22;2.17;;;;;;;-146.18;100.00;67994.34;9982555;29;20048;-66
2021/04/24 11:54:28;;;;;;;8.85;1.95;;;;;;;-146.18;100.00;67994.34;9995222;29;20108;-66
2021/04/24 11:59:26;;;;;;;5.97;1.90;;;;;;;-146.18;100.00;67994.34;9992534;29;20104;-66
2021/04/24 12:04:25;;;;;;;8.20;2.28;;;;;;;-146.18;100.00;67994.34;9993254;29;20103;-65
2021/04/24 12:09:21;;;;;;;9.88;2.38;;;;;;;-146.18;100.00;67994.34;9987652;29;20494;-66
2021/04/24 12:14:19;;;;;;;9.52;2.78;;;;;;;-146.18;100.00;67994.34;9991519;29;20075;-66
2021/04/24 12:19:32;;;;;;;8.63;2.30;;;;;;;-146.18;100.00;67994.34;9993992;29;20071;-67
2021/04/24 12:24:28;;;;;;;9.85;3.88;;;;;;;-146.18;100.00;67994.34;9963804;29;20127;-67
2021/04/24 12:29:49;;;;;;;8.43;2.38;;;;;;;-146.18;100.00;67994.34;9988091;29;20134;-67
2021/04/24 12:34:45;;;;;;;8.73;2.40;;;;;;;-146.18;100.00;67994.34;9988336;29;20044;-65
2021/04/24 12:39:42;;;;;;;5.50;2.00;;;;;;;-146.18;100.00;67994.34;9990034;29;20179;-65
2021/04/24 12:44:39;;;;;;;6.25;2.40;;;;;;;-146.18;100.00;67994.34;9990383;29;20048;-66
2021/04/24 12:49:40;;;;;;;6.93;2.10;;;;;;;-146.18;100.00;67994.34;9988058;29;20135;-66
2021/04/24 12:54:36;;;;;;;7.80;2.13;;;;;;;-146.18;100.00;67994.34;9992183;29;20071;-66
2021/04/24 12:59:32;;;;;;;5.50;1.83;;;;;;;-146.18;100.00;67994.34;9991289;29;20084;-66
2021/04/24 13:04:28;;;;;;;7.95;2.20;;;;;;;-146.18;100.00;67994.34;9989638;29;20430;-66
2021/04/24 13:09:35;;;;;;;6.13;2.50;;;;;;;-146.18;100.00;67994.34;9986627;29;20495;-67
2021/04/24 13:14:40;;;;;;;7.03;2.30;;;;;;;-146.18;100.00;67994.34;9973215;29;20044;-68
2021/04/24 13:19:51;;;;;;;7.70;2.20;;;;;;;-146.18;100.00;67994.34;9990260;29;20148;-67
2021/04/24 13:24:47;;;;;;;6.15;2.30;;;;;;;-146.18;100.00;67994.34;9987741;29;20095;-66
2021/04/24 13:29:43;;;;;;;7.07;1.90;;;;;;;-146.18;100.00;67994.34;9988973;29;20044;-66
2021/04/24 13:34:42;;;;;;;5.22;1.92;;;;;;;-146.18;100.00;67994.34;9980665;29;20044;-66
2021/04/24 13:39:59;;;;;;;5.70;2.35;;;;;;;-146.18;100.00;67994.34;9983538;29;20060;-65
2021/04/24 13:45:26;;;;;;;6.25;2.15;;;;;;;-146.18;100.00;67994.34;9981208;29;20048;-65
2021/04/24 13:50:24;;;;;;;5.88;1.75;;;;;;;-146.18;100.00;67994.34;9971664;29;20067;-67
2021/04/24 13:55:21;;;;;;;6.30;2.20;;;;;;;-146.18;100.00;67994.34;9989586;29;20458;-67
2021/04/24 14:00:18;;;;;;;6.47;1.80;;;;;;;-146.18;100.00;67994.34;9979557;29;20056;-65
2021/04/24 14:05:14;;;;;;;6.22;1.58;;;;;;;-146.18;100.00;67994.34;9988362;29;20048;-67
2021/04/24 14:10:10;;;;;;;4.97;1.60;;;;;;;-146.18;100.00;67994.34;9979350;29;20064;-66
2021/04/24 14:15:08;;;;;;;7.80;1.90;;;;;;;-146.18;100.00;67994.34;9967793;29;20055;-65
2021/04/24 14:20:07;;;;;;;5.32;1.80;;;;;;;-146.18;100.00;67994.34;9989719;29;20064;-67
2021/04/24 14:25:04;;;;;;;8.65;2.30;;;;;;;-146.18;100.00;67994.34;9983253;29;20052;-67
2021/04/24 14:30:00;;;;;;;5.10;1.88;;;;;;;-146.18;100.00;67994.34;9985619;29;20052;-66
2021/04/24 14:34:56;;;;;;;4.50;1.58;;;;;;;-146.18;100.00;67994.34;9989520;29;20494;-65
2021/04/24 14:39:52;;;;;;;4.35;1.70;;;;;;;-146.18;100.00;67994.34;9993564;29;20044;-66
2021/04/24 14:44:48;;;;;;;4.38;1.35;;;;;;;-146.18;100.00;67994.34;9995184;29;20040;-67
2021/04/24 14:49:45;;;;;;;4.05;1.23;;;;;;;-146.18;100.00;67994.34;9993733;29;20059;-66
2021/04/24 14:54:41;;;;;;;4.78;1.42;;;;;;;-146.18;100.00;67994.34;9990582;29;20040;-67
2021/04/24 14:59:37;;;;;;;7.15;1.77;;;;;;;-146.18;100.00;67994.34;9992871;29;20047;-66
2021/04/24 15:04:34;;;;;;;4.75;1.73;;;;;;;-146.18;100.00;67994.34;9988719;29;20095;-67
2021/04/24 15:09:31;;;;;;;5.05;1.80;;;;;;;-146.18;100.00;67994.34;9988906;29;20079;-68
2021/04/24 15:14:27;;;;;;;8.32;2.65;;;;;;;-146.18;100.00;67994.34;9992923;29;20040;-67
2021/04/24 15:19:23;;;;;;;4.93;1.63;;;;;;;-146.18;100.00;67994.34;9974600;29;20052;-66
2021/04/24 15:24:19;;;;;;;6.20;3.30;;;;;;;-146.18;100.00;67994.34;9990526;29;20044;-68
2021/04/24 15:29:17;;;;;;;8.98;1.77;;;;;;;-146.18;100.00;67994.34;9979281;29;20163;-68
2021/04/24 15:34:14;;;;;;;5.20;2.03;;;;;;;-146.18;100.00;67994.34;9994237;29;20135;-66
2021/04/24 15:39:11;;;;;;;6.03;2.40;;;;;;;-146.18;100.00;67994.34;9987320;29;20146;-65
2021/04/24 15:44:07;;;;;;;4.75;2.00;;;;;;;-146.18;100.00;67994.34;9992106;29;20052;-65
2021/04/24 15:49:03;;;;;;;7.13;2.45;;;;;;;-146.18;100.00;67994.34;9987021;29;20083;-66
2021/04/24 15:53:59;;;;;;;5.30;1.85;;;;;;;-146.18;100.00;67994.34;9992503;29;20846;-65
2021/04/24 15:58:56;;;;;;;6.25;2.00;;;;;;;-146.18;100.00;67994.34;9992287;29;20052;-65
2021/04/24 16:03:52;;;;;;;6.43;1.40;;;;;;;-146.18;100.00;67994.34;9993529;29;20102;-65
2021/04/24 16:08:49;;;;;;;9.07;1.38;;;;;;;-146.18;100.00;67994.34;9991740;29;20052;-65
2021/04/24 16:13:45;;;;;;;4.00;1.55;;;;;;;-146.18;100.00;67994.34;9994243;29;20036;-66
2021/04/24 16:18:42;;;;;;;6.53;1.40;;;;;;;-146.18;100.00;67994.34;9987968;29;20059;-66
2021/04/24 16:23:38;;;;;;;6.75;2.25;;;;;;;-146.18;100.00;67994.34;9989343;29;20051;-65
2021/04/24 16:28:34;;;;;;;4.45;1.30;;;;;;;-146.18;100.00;67994.34;9989101;29;20052;-65
2021/04/24 16:33:30;;;;;;;5.32;1.10;;;;;;;-146.18;100.00;67994.34;9989141;29;20047;-66
2021/04/24 16:38:26;;;;;;;6.15;1.85;;;;;;;-146.18;100.00;67994.34;9993083;29;20721;-65
2021/04/24 16:43:22;;;;;;;9.52;1.70;;;;;;;-146.18;100.00;67994.34;9991341;29;20123;-66
2021/04/24 16:48:18;;;;;;;7.35;1.40;;;;;;;-146.18;100.00;67994.34;9987671;29;20506;-65
2021/04/24 16:53:14;;;;;;;7.80;2.08;;;;;;;-146.18;100.00;67994.34;9992955;29;20051;-66
2021/04/24 16:58:12;;;;;;;6.78;1.98;;;;;;;-146.18;100.00;67994.34;9993302;29;20052;-66
2021/04/24 17:03:10;;;;;;;7.75;1.60;;;;;;;-146.18;100.00;67994.34;9991596;29;20060;-66
2021/04/24 17:08:07;;;;;;;7.07;1.40;;;;;;;-146.18;100.00;67994.34;9988485;29;20131;-66
2021/04/24 17:13:03;;;;;;;4.10;1.40;;;;;;;-146.18;100.00;67994.34;9987628;29;20514;-67
2021/04/24 17:17:59;;;;;;;9.05;1.58;;;;;;;-146.18;100.00;67994.34;9988132;29;20470;-67
2021/04/24 17:22:55;;;;;;;5.35;1.63;;;;;;;-146.18;100.00;67994.34;9988454;29;20047;-67
2021/04/24 17:27:51;;;;;;;5.63;1.63;;;;;;;-146.18;100.00;67994.34;9985680;29;20577;-68
2021/04/24 17:32:47;;;;;;;7.20;2.08;;;;;;;-146.18;100.00;67994.34;9989788;29;20044;-67
2021/04/24 17:37:43;;;;;;;9.10;2.85;;;;;;;-146.18;100.00;67994.34;9981924;29;20044;-64
2021/04/24 17:42:39;;;;;;;9.05;3.00;;;;;;;-146.18;100.00;67994.34;9990352;29;20044;-65
2021/04/24 17:47:38;;;;;;;7.80;1.60;;;;;;;-146.18;100.00;67994.34;9984948;29;20111;-65
2021/04/24 17:52:35;;;;;;;9.93;1.90;;;;;;;-146.18;100.00;67994.34;9992924;29;20160;-66
2021/04/24 17:57:35;;;;;;;9.52;2.58;;;;;;;-146.18;100.00;67994.34;9990989;29;20526;-66
2021/04/24 18:02:33;;;;;;;8.13;2.05;;;;;;;-146.18;100.00;67994.34;9986544;29;20048;-67
2021/04/24 18:07:30;;;;;;;13.25;2.58;;;;;;;-146.18;100.00;67994.34;9979484;29;20100;-68
2021/04/24 18:12:26;;;;;;;8.93;3.35;;;;;;;-146.18;100.00;67994.34;9982772;29;20040;-66
2021/04/24 18:17:22;;;;;;;11.95;2.90;;;;;;;-146.18;100.00;67994.34;9983639;29;20048;-66
2021/04/24 18:22:18;;;;;;;8.20;1.98;;;;;;;-146.18;100.00;67994.34;9989509;29;20054;-67
2021/04/24 18:27:14;;;;;;;8.55;1.95;;;;;;;-146.18;100.00;67994.34;9982628;29;20060;-67
2021/04/24 18:32:10;;;;;;;10.38;2.55;;;;;;;-146.18;100.00;67994.34;9990816;29;20056;-67
2021/04/24 18:37:07;;;;;;;9.63;1.95;;;;;;;-146.18;100.00;67994.34;9987767;29;20040;-66
2021/04/24 18:42:03;;;;;;;9.10;2.55;;;;;;;-146.18;100.00;67994.34;9985934;29;20055;-66
2021/04/24 18:46:59;;;;;;;8.65;1.90;;;;;;;-146.18;100.00;67994.34;9985667;29;20083;-66
2021/04/24 18:51:56;;;;;;;6.35;1.70;;;;;;;-146.18;100.00;67994.34;9986716;29;20063;-66
2021/04/24 18:56:52;;;;;;;9.10;2.30;;;;;;;-146.18;100.00;67994.34;9986610;29;20761;-65
2021/04/24 19:01:48;;;;;;;12.48;3.10;;;;;;;-146.18;100.00;67994.34;9990147;29;20732;-66
2021/04/24 19:06:44;;;;;;;10.23;2.10;;;;;;;-146.18;100.00;67994.34;9984739;29;20048;-65
2021/04/24 19:11:40;;;;;;;6.40;2.03;;;;;;;-146.18;100.00;67994.34;9988635;29;20542;-65
2021/04/24 19:16:36;;;;;;;7.38;2.08;;;;;;;-146.18;100.00;67994.34;9978345;29;20084;-66
2021/04/24 19:21:32;;;;;;;7.22;2.17;;;;;;;-146.18;100.00;67994.34;9992697;29;20048;-65
2021/04/24 19:26:28;;;;;;;6.80;2.08;;;;;;;-146.18;100.00;67994.34;9993483;29;20061;-66
2021/04/24 19:31:25;;;;;;;7.68;2.70;;;;;;;-146.18;100.00;67994.34;9993284;29;20048;-65
2021/04/24 19:36:23;;;;;;;8.70;2.70;;;;;;;-146.18;100.00;67994.34;9988337;29;20136;-65
2021/04/24 19:41:19;;;;;;;8.85;2.50;;;;;;;-146.18;100.00;67994.34;9993170;29;20048;-68
2021/04/24 19:46:15;;;;;;;8.70;2.58;;;;;;;-146.18;100.00;67994.34;9994489;29;20056;-66
2021/04/24 19:51:12;;;;;;;5.72;2.22;;;;;;;-146.18;100.00;67994.34;9991208;29;20054;-67
2021/04/24 19:56:08;;;;;;;12.73;2.35;;;;;;;-146.18;100.00;67994.34;9992151;29;20123;-66
2021/04/24 20:01:04;;;;;;;11.70;2.45;;;;;;;-146.18;100.00;67994.34;9991958;29;20059;-66
2021/04/24 20:06:00;;;;;;;12.73;2.45;;;;;;;-146.18;100.00;67994.34;9990782;29;20055;-68
2021/04/24 20:10:56;;;;;;;11.05;3.63;;;;;;;-146.18;100.00;67994.34;9982176;29;20059;-66
2021/04/24 20:15:52;;;;;;;7.38;2.85;;;;;;;-146.18;100.00;67994.34;9990338;29;20048;-66
2021/04/24 20:20:48;;;;;;;9.82;2.85;;;;;;;-146.18;100.00;67994.34;9985999;29;20075;-67
2021/04/24 20:25:44;;;;;;;12.52;3.42;;;;;;;-146.18;100.00;67994.34;9971397;29;20139;-66
2021/04/24 20:30:40;;;;;;;14.27;2.95;;;;;;;-146.18;100.00;67994.34;9986502;29;20055;-66
2021/04/24 20:35:36;;;;;;;17.98;8.25;;;;;;;-146.18;100.00;67994.34;9990635;29;20055;-67
2021/04/24 20:40:32;;;;;;;9.68;2.90;;;;;;;-146.18;100.00;67994.34;9991189;29;20051;-66
2021/04/24 20:45:29;;;;;;;8.98;3.17;;;;;;;-146.18;100.00;67994.34;9990204;29;20056;-67
2021/04/24 20:50:26;;;;;;;9.50;3.92;;;;;;;-146.18;100.00;67994.34;9977045;29;20048;-66
2021/04/24 20:55:22;;;;;;;9.30;3.55;;;;;;;-146.18;100.00;67994.34;9986423;29;20932;-66
2021/04/24 21:00:18;;;;;;;11.13;3.67;;;;;;;-146.18;100.00;67994.34;9990838;29;20080;-65
2021/04/24 21:05:15;;;;;;;8.77;2.65;;;;;;;-146.18;100.00;67994.34;9985484;29;20040;-67
2021/04/24 21:10:13;;;;;;;8.55;3.15;;;;;;;-146.18;100.00;67994.34;9984152;29;20588;-65
2021/04/24 21:15:11;;;;;;;7.95;2.55;;;;;;;-146.18;100.00;67994.34;9983466;29;20117;-66
2021/04/24 21:20:13;;;;;;;9.20;3.03;;;;;;;-146.18;100.00;67994.34;9984389;29;20060;-66
2021/04/24 21:25:11;;;;;;;9.70;2.80;;;;;;;-146.18;100.00;67994.34;9982387;29;20104;-66
2021/04/24 21:30:08;;;;;;;10.15;2.80;;;;;;;-146.18;100.00;67994.34;9990378;29;20083;-66
2021/04/24 21:35:05;;;;;;;10.20;3.38;;;;;;;-146.18;100.00;67994.34;9986626;29;20475;-67
2021/04/24 21:40:03;;;;;;;12.15;2.78;;;;;;;-146.18;100.00;67994.34;9989298;29;20319;-65
2021/04/24 21:44:59;;;;;;;13.07;2.60;;;;;;;-146.18;100.00;67994.34;9987397;29;20044;-67
2021/04/24 21:49:55;;;;;;;10.02;3.05;;;;;;;-146.18;100.00;67994.34;9988508;29;20044;-68
2021/04/24 21:54:51;;;;;;;8.27;2.83;;;;;;;-146.18;100.00;67994.34;9989360;29;20048;-67
2021/04/24 21:59:47;;;;;;;7.72;2.65;;;;;;;-146.18;100.00;67994.34;9987879;29;20067;-67
2021/04/24 22:04:43;;;;;;;9.52;2.67;;;;;;;-146.18;100.00;67994.34;9988525;29;20044;-68
2021/04/24 22:09:38;;;;;;;10.65;3.00;;;;;;;-146.18;100.00;67994.34;9989182;29;20052;-67
2021/04/24 22:14:34;;;;;;;10.57;2.88;;;;;;;-146.18;100.00;67994.34;9990355;29;20933;-66
2021/04/24 22:19:30;;;;;;;10.38;2.60;;;;;;;-146.18;100.00;67994.34;9987943;29;20048;-66
2021/04/24 22:24:27;;;;;;;10.75;2.95;;;;;;;-146.18;100.00;67994.34;9987147;29;20048;-66